sensor_id;sensor_type;location;lat;lon;timestamp;P1;durP1;ratioP1;P2;durP2;ratioP2
78787;SDS011;68131;52.508;5.502;2023-07-28T00:01:45;3.00;;;1.38;;
78787;SDS011;68131;52.508;5.502;2023-07-28T00:04:14;3.72;;;1.83;;
78787;SDS011;68131;52.508;5.502;2023-07-28T00:06:43;3.05;;;1.58;;
78787;SDS011;68131;52.508;5.502;2023-07-28T00:09:14;4.50;;;2.35;;
78787;SDS011;68131;52.508;5.502;2023-07-28T00:11:44;3.38;;;1.60;;
78787;SDS011;68131;52.508;5.502;2023-07-28T00:14:18;2.45;;;1.38;;
78787;SDS011;68131;52.508;5.502;2023-07-28T00:16:48;2.40;;;1.23;;
78787;SDS011;68131;52.508;5.502;2023-07-28T00:19:17;3.75;;;2.25;;
78787;SDS011;68131;52.508;5.502;2023-07-28T00:21:47;2.20;;;1.60;;
78787;SDS011;68131;52.508;5.502;2023-07-28T00:24:21;3.28;;;1.48;;
78787;SDS011;68131;52.508;5.502;2023-07-28T00:26:51;3.65;;;1.67;;
78787;SDS011;68131;52.508;5.502;2023-07-28T00:29:25;3.58;;;1.75;;
78787;SDS011;68131;52.508;5.502;2023-07-28T00:31:54;5.97;;;2.13;;
78787;SDS011;68131;52.508;5.502;2023-07-28T00:34:26;2.70;;;1.67;;
78787;SDS011;68131;52.508;5.502;2023-07-28T00:36:55;5.53;;;2.72;;
78787;SDS011;68131;52.508;5.502;2023-07-28T00:39:24;2.97;;;1.60;;
78787;SDS011;68131;52.508;5.502;2023-07-28T00:41:55;4.28;;;1.80;;
78787;SDS011;68131;52.508;5.502;2023-07-28T00:44:27;5.57;;;1.92;;
78787;SDS011;68131;52.508;5.502;2023-07-28T00:46:56;3.55;;;1.80;;
78787;SDS011;68131;52.508;5.502;2023-07-28T00:49:29;6.35;;;1.90;;
78787;SDS011;68131;52.508;5.502;2023-07-28T00:51:59;2.97;;;1.63;;
78787;SDS011;68131;52.508;5.502;2023-07-28T00:54:28;5.22;;;2.13;;
78787;SDS011;68131;52.508;5.502;2023-07-28T00:56:57;3.20;;;1.40;;
78787;SDS011;68131;52.508;5.502;2023-07-28T00:59:29;2.45;;;1.48;;
78787;SDS011;68131;52.508;5.502;2023-07-28T01:01:59;3.85;;;1.92;;
78787;SDS011;68131;52.508;5.502;2023-07-28T01:04:29;2.42;;;1.65;;
78787;SDS011;68131;52.508;5.502;2023-07-28T01:07:03;2.28;;;1.50;;
78787;SDS011;68131;52.508;5.502;2023-07-28T01:09:40;8.48;;;1.83;;
78787;SDS011;68131;52.508;5.502;2023-07-28T01:12:17;2.75;;;1.45;;
78787;SDS011;68131;52.508;5.502;2023-07-28T01:14:49;5.28;;;1.88;;
78787;SDS011;68131;52.508;5.502;2023-07-28T01:17:23;2.15;;;1.50;;
78787;SDS011;68131;52.508;5.502;2023-07-28T01:19:55;1.80;;;1.40;;
78787;SDS011;68131;52.508;5.502;2023-07-28T01:22:30;6.10;;;2.10;;
78787;SDS011;68131;52.508;5.502;2023-07-28T01:25:18;7.68;;;1.98;;
78787;SDS011;68131;52.508;5.502;2023-07-28T01:28:00;1.77;;;1.30;;
78787;SDS011;68131;52.508;5.502;2023-07-28T01:30:29;4.90;;;1.52;;
78787;SDS011;68131;52.508;5.502;2023-07-28T01:32:59;4.03;;;1.70;;
78787;SDS011;68131;52.508;5.502;2023-07-28T01:35:28;3.45;;;1.83;;
78787;SDS011;68131;52.508;5.502;2023-07-28T01:37:59;2.72;;;1.60;;
78787;SDS011;68131;52.508;5.502;2023-07-28T01:40:28;3.80;;;1.67;;
78787;SDS011;68131;52.508;5.502;2023-07-28T01:43:00;5.38;;;1.73;;
78787;SDS011;68131;52.508;5.502;2023-07-28T01:45:29;2.45;;;1.80;;
78787;SDS011;68131;52.508;5.502;2023-07-28T01:48:01;2.65;;;2.08;;
78787;SDS011;68131;52.508;5.502;2023-07-28T01:50:30;4.93;;;1.70;;
78787;SDS011;68131;52.508;5.502;2023-07-28T01:52:59;2.95;;;1.50;;
78787;SDS011;68131;52.508;5.502;2023-07-28T01:55:28;2.78;;;1.98;;
78787;SDS011;68131;52.508;5.502;2023-07-28T01:58:03;3.45;;;1.95;;
78787;SDS011;68131;52.508;5.502;2023-07-28T02:00:35;2.95;;;1.73;;
78787;SDS011;68131;52.508;5.502;2023-07-28T02:03:07;3.85;;;1.95;;
78787;SDS011;68131;52.508;5.502;2023-07-28T02:05:36;2.53;;;1.67;;
78787;SDS011;68131;52.508;5.502;2023-07-28T02:08:05;3.25;;;1.73;;
78787;SDS011;68131;52.508;5.502;2023-07-28T02:10:36;3.05;;;1.95;;
78787;SDS011;68131;52.508;5.502;2023-07-28T02:13:11;3.88;;;1.92;;
78787;SDS011;68131;52.508;5.502;2023-07-28T02:15:40;4.15;;;2.15;;
78787;SDS011;68131;52.508;5.502;2023-07-28T02:18:10;4.10;;;2.30;;
78787;SDS011;68131;52.508;5.502;2023-07-28T02:20:39;3.72;;;1.90;;
78787;SDS011;68131;52.508;5.502;2023-07-28T02:23:08;4.03;;;2.10;;
78787;SDS011;68131;52.508;5.502;2023-07-28T02:25:40;4.32;;;2.55;;
78787;SDS011;68131;52.508;5.502;2023-07-28T02:28:13;6.82;;;1.92;;
78787;SDS011;68131;52.508;5.502;2023-07-28T02:30:42;4.90;;;2.60;;
78787;SDS011;68131;52.508;5.502;2023-07-28T02:33:12;3.70;;;2.25;;
78787;SDS011;68131;52.508;5.502;2023-07-28T02:35:41;5.90;;;2.30;;
78787;SDS011;68131;52.508;5.502;2023-07-28T02:38:10;3.00;;;2.05;;
78787;SDS011;68131;52.508;5.502;2023-07-28T02:40:39;5.95;;;2.20;;
78787;SDS011;68131;52.508;5.502;2023-07-28T02:43:08;3.63;;;1.67;;
78787;SDS011;68131;52.508;5.502;2023-07-28T02:45:41;3.40;;;1.98;;
78787;SDS011;68131;52.508;5.502;2023-07-28T02:48:10;3.40;;;2.13;;
78787;SDS011;68131;52.508;5.502;2023-07-28T02:50:44;4.70;;;1.88;;
78787;SDS011;68131;52.508;5.502;2023-07-28T02:53:14;3.63;;;2.42;;
78787;SDS011;68131;52.508;5.502;2023-07-28T02:55:46;5.03;;;1.83;;
78787;SDS011;68131;52.508;5.502;2023-07-28T02:58:16;5.68;;;1.80;;
78787;SDS011;68131;52.508;5.502;2023-07-28T03:00:51;2.63;;;2.08;;
78787;SDS011;68131;52.508;5.502;2023-07-28T03:05:57;3.35;;;1.88;;
78787;SDS011;68131;52.508;5.502;2023-07-28T03:08:26;5.32;;;2.10;;
78787;SDS011;68131;52.508;5.502;2023-07-28T03:11:12;3.60;;;2.25;;
78787;SDS011;68131;52.508;5.502;2023-07-28T03:13:42;3.88;;;2.28;;
78787;SDS011;68131;52.508;5.502;2023-07-28T03:16:16;5.10;;;2.15;;
78787;SDS011;68131;52.508;5.502;2023-07-28T03:18:46;2.28;;;1.60;;
78787;SDS011;68131;52.508;5.502;2023-07-28T03:21:16;5.47;;;2.03;;
78787;SDS011;68131;52.508;5.502;2023-07-28T03:23:45;6.03;;;2.30;;
78787;SDS011;68131;52.508;5.502;2023-07-28T03:26:14;4.63;;;2.65;;
78787;SDS011;68131;52.508;5.502;2023-07-28T03:28:43;4.18;;;2.20;;
78787;SDS011;68131;52.508;5.502;2023-07-28T03:31:15;4.90;;;2.95;;
78787;SDS011;68131;52.508;5.502;2023-07-28T03:33:54;2.88;;;1.65;;
78787;SDS011;68131;52.508;5.502;2023-07-28T03:36:28;4.55;;;2.25;;
78787;SDS011;68131;52.508;5.502;2023-07-28T03:38:58;4.38;;;2.83;;
78787;SDS011;68131;52.508;5.502;2023-07-28T03:41:29;3.25;;;2.15;;
78787;SDS011;68131;52.508;5.502;2023-07-28T03:43:58;5.32;;;2.63;;
78787;SDS011;68131;52.508;5.502;2023-07-28T03:46:30;4.53;;;2.15;;
78787;SDS011;68131;52.508;5.502;2023-07-28T03:49:02;8.00;;;2.58;;
78787;SDS011;68131;52.508;5.502;2023-07-28T03:51:31;10.38;;;3.05;;
78787;SDS011;68131;52.508;5.502;2023-07-28T03:54:06;4.72;;;2.70;;
78787;SDS011;68131;52.508;5.502;2023-07-28T03:56:35;5.72;;;2.60;;
78787;SDS011;68131;52.508;5.502;2023-07-28T03:59:04;4.93;;;2.80;;
78787;SDS011;68131;52.508;5.502;2023-07-28T04:01:36;5.25;;;2.33;;
78787;SDS011;68131;52.508;5.502;2023-07-28T04:04:06;3.35;;;2.00;;
78787;SDS011;68131;52.508;5.502;2023-07-28T04:06:41;3.72;;;2.38;;
78787;SDS011;68131;52.508;5.502;2023-07-28T04:09:12;11.18;;;2.90;;
78787;SDS011;68131;52.508;5.502;2023-07-28T04:11:43;7.90;;;2.20;;
78787;SDS011;68131;52.508;5.502;2023-07-28T04:14:12;6.38;;;3.20;;
78787;SDS011;68131;52.508;5.502;2023-07-28T04:16:44;5.55;;;3.05;;
78787;SDS011;68131;52.508;5.502;2023-07-28T04:19:19;8.25;;;2.78;;
78787;SDS011;68131;52.508;5.502;2023-07-28T04:21:51;5.97;;;2.33;;
78787;SDS011;68131;52.508;5.502;2023-07-28T04:24:20;5.40;;;3.03;;
78787;SDS011;68131;52.508;5.502;2023-07-28T04:26:52;4.40;;;2.95;;
78787;SDS011;68131;52.508;5.502;2023-07-28T04:29:21;6.78;;;2.55;;
78787;SDS011;68131;52.508;5.502;2023-07-28T04:31:55;11.48;;;3.25;;
78787;SDS011;68131;52.508;5.502;2023-07-28T04:34:32;4.90;;;2.70;;
78787;SDS011;68131;52.508;5.502;2023-07-28T04:37:12;6.35;;;3.42;;
78787;SDS011;68131;52.508;5.502;2023-07-28T04:40:01;2.97;;;2.50;;
78787;SDS011;68131;52.508;5.502;2023-07-28T04:42:35;5.78;;;2.72;;
78787;SDS011;68131;52.508;5.502;2023-07-28T04:45:06;6.80;;;2.72;;
78787;SDS011;68131;52.508;5.502;2023-07-28T04:47:39;8.73;;;2.95;;
78787;SDS011;68131;52.508;5.502;2023-07-28T04:50:11;6.18;;;2.97;;
78787;SDS011;68131;52.508;5.502;2023-07-28T04:55:45;5.45;;;2.90;;
78787;SDS011;68131;52.508;5.502;2023-07-28T04:58:15;3.42;;;2.35;;
78787;SDS011;68131;52.508;5.502;2023-07-28T05:00:50;7.40;;;2.58;;
78787;SDS011;68131;52.508;5.502;2023-07-28T05:03:22;4.28;;;2.40;;
78787;SDS011;68131;52.508;5.502;2023-07-28T05:05:56;7.57;;;3.00;;
78787;SDS011;68131;52.508;5.502;2023-07-28T05:08:25;3.70;;;1.92;;
78787;SDS011;68131;52.508;5.502;2023-07-28T05:10:55;4.55;;;2.22;;
78787;SDS011;68131;52.508;5.502;2023-07-28T05:13:25;5.20;;;2.97;;
78787;SDS011;68131;52.508;5.502;2023-07-28T05:15:57;6.75;;;2.53;;
78787;SDS011;68131;52.508;5.502;2023-07-28T05:18:49;5.55;;;2.35;;
78787;SDS011;68131;52.508;5.502;2023-07-28T05:21:36;3.60;;;1.80;;
78787;SDS011;68131;52.508;5.502;2023-07-28T05:24:07;9.98;;;2.65;;
78787;SDS011;68131;52.508;5.502;2023-07-28T05:26:37;4.22;;;2.38;;
78787;SDS011;68131;52.508;5.502;2023-07-28T05:29:07;4.07;;;2.63;;
78787;SDS011;68131;52.508;5.502;2023-07-28T05:31:36;4.78;;;1.92;;
78787;SDS011;68131;52.508;5.502;2023-07-28T05:34:17;6.20;;;3.03;;
78787;SDS011;68131;52.508;5.502;2023-07-28T05:36:49;7.05;;;2.75;;
78787;SDS011;68131;52.508;5.502;2023-07-28T05:39:19;6.13;;;2.30;;
78787;SDS011;68131;52.508;5.502;2023-07-28T05:41:48;4.30;;;2.33;;
78787;SDS011;68131;52.508;5.502;2023-07-28T05:44:20;3.90;;;2.03;;
78787;SDS011;68131;52.508;5.502;2023-07-28T05:46:49;3.72;;;2.35;;
78787;SDS011;68131;52.508;5.502;2023-07-28T05:49:22;3.45;;;2.13;;
78787;SDS011;68131;52.508;5.502;2023-07-28T05:51:52;4.18;;;2.05;;
78787;SDS011;68131;52.508;5.502;2023-07-28T05:54:21;4.40;;;2.28;;
78787;SDS011;68131;52.508;5.502;2023-07-28T05:56:51;3.10;;;2.20;;
78787;SDS011;68131;52.508;5.502;2023-07-28T05:59:23;4.72;;;2.15;;
78787;SDS011;68131;52.508;5.502;2023-07-28T06:01:55;3.58;;;2.17;;
78787;SDS011;68131;52.508;5.502;2023-07-28T06:04:27;2.88;;;2.25;;
78787;SDS011;68131;52.508;5.502;2023-07-28T06:06:58;3.65;;;2.10;;
78787;SDS011;68131;52.508;5.502;2023-07-28T06:09:27;4.63;;;2.40;;
78787;SDS011;68131;52.508;5.502;2023-07-28T06:12:02;4.30;;;2.13;;
78787;SDS011;68131;52.508;5.502;2023-07-28T06:14:35;6.25;;;2.55;;
78787;SDS011;68131;52.508;5.502;2023-07-28T06:17:07;6.18;;;2.30;;
78787;SDS011;68131;52.508;5.502;2023-07-28T06:19:39;4.07;;;2.28;;
78787;SDS011;68131;52.508;5.502;2023-07-28T06:22:08;3.83;;;2.20;;
78787;SDS011;68131;52.508;5.502;2023-07-28T06:24:41;7.25;;;2.58;;
78787;SDS011;68131;52.508;5.502;2023-07-28T06:27:11;3.42;;;2.25;;
78787;SDS011;68131;52.508;5.502;2023-07-28T06:29:40;4.65;;;2.40;;
78787;SDS011;68131;52.508;5.502;2023-07-28T06:32:09;6.95;;;2.63;;
78787;SDS011;68131;52.508;5.502;2023-07-28T06:34:41;5.15;;;2.05;;
78787;SDS011;68131;52.508;5.502;2023-07-28T06:37:10;3.55;;;2.47;;
78787;SDS011;68131;52.508;5.502;2023-07-28T06:39:40;6.55;;;2.92;;
78787;SDS011;68131;52.508;5.502;2023-07-28T06:42:10;4.07;;;2.03;;
78787;SDS011;68131;52.508;5.502;2023-07-28T06:44:57;4.18;;;2.25;;
78787;SDS011;68131;52.508;5.502;2023-07-28T06:47:27;4.05;;;2.28;;
78787;SDS011;68131;52.508;5.502;2023-07-28T06:49:59;3.35;;;2.28;;
78787;SDS011;68131;52.508;5.502;2023-07-28T06:52:28;11.18;;;2.78;;
78787;SDS011;68131;52.508;5.502;2023-07-28T06:55:00;6.43;;;2.65;;
78787;SDS011;68131;52.508;5.502;2023-07-28T06:57:29;3.92;;;2.33;;
78787;SDS011;68131;52.508;5.502;2023-07-28T07:00:02;4.55;;;2.28;;
78787;SDS011;68131;52.508;5.502;2023-07-28T07:02:35;6.55;;;2.42;;
78787;SDS011;68131;52.508;5.502;2023-07-28T07:05:07;4.60;;;2.40;;
78787;SDS011;68131;52.508;5.502;2023-07-28T07:07:38;3.38;;;2.42;;
78787;SDS011;68131;52.508;5.502;2023-07-28T07:10:07;4.05;;;2.88;;
78787;SDS011;68131;52.508;5.502;2023-07-28T07:12:37;3.35;;;2.55;;
78787;SDS011;68131;52.508;5.502;2023-07-28T07:15:07;7.60;;;2.50;;
78787;SDS011;68131;52.508;5.502;2023-07-28T07:17:37;5.90;;;2.42;;
78787;SDS011;68131;52.508;5.502;2023-07-28T07:20:12;5.72;;;2.30;;
78787;SDS011;68131;52.508;5.502;2023-07-28T07:22:42;8.18;;;2.75;;
78787;SDS011;68131;52.508;5.502;2023-07-28T07:25:11;3.72;;;2.30;;
78787;SDS011;68131;52.508;5.502;2023-07-28T07:27:40;5.93;;;2.60;;
78787;SDS011;68131;52.508;5.502;2023-07-28T07:30:17;7.20;;;3.05;;
78787;SDS011;68131;52.508;5.502;2023-07-28T07:32:47;3.13;;;2.35;;
78787;SDS011;68131;52.508;5.502;2023-07-28T07:35:24;8.85;;;3.65;;
78787;SDS011;68131;52.508;5.502;2023-07-28T07:37:54;3.60;;;2.38;;
78787;SDS011;68131;52.508;5.502;2023-07-28T07:40:27;3.28;;;2.33;;
78787;SDS011;68131;52.508;5.502;2023-07-28T07:42:57;5.20;;;3.05;;
78787;SDS011;68131;52.508;5.502;2023-07-28T07:45:28;12.27;;;3.03;;
78787;SDS011;68131;52.508;5.502;2023-07-28T07:47:58;4.15;;;2.25;;
78787;SDS011;68131;52.508;5.502;2023-07-28T07:50:30;4.05;;;2.45;;
78787;SDS011;68131;52.508;5.502;2023-07-28T07:52:59;4.47;;;1.98;;
78787;SDS011;68131;52.508;5.502;2023-07-28T07:55:28;3.92;;;2.50;;
78787;SDS011;68131;52.508;5.502;2023-07-28T07:57:57;6.57;;;2.90;;
78787;SDS011;68131;52.508;5.502;2023-07-28T08:00:28;6.35;;;2.67;;
78787;SDS011;68131;52.508;5.502;2023-07-28T08:02:59;4.22;;;2.67;;
78787;SDS011;68131;52.508;5.502;2023-07-28T08:05:32;9.15;;;3.17;;
78787;SDS011;68131;52.508;5.502;2023-07-28T08:08:06;5.57;;;2.65;;
78787;SDS011;68131;52.508;5.502;2023-07-28T08:10:35;4.82;;;3.10;;
78787;SDS011;68131;52.508;5.502;2023-07-28T08:13:07;10.13;;;2.90;;
78787;SDS011;68131;52.508;5.502;2023-07-28T08:15:39;5.05;;;2.42;;
78787;SDS011;68131;52.508;5.502;2023-07-28T08:18:08;5.38;;;2.05;;
78787;SDS011;68131;52.508;5.502;2023-07-28T08:20:40;3.65;;;2.35;;
78787;SDS011;68131;52.508;5.502;2023-07-28T08:23:09;4.53;;;2.00;;
78787;SDS011;68131;52.508;5.502;2023-07-28T08:25:39;4.70;;;2.40;;
78787;SDS011;68131;52.508;5.502;2023-07-28T08:28:08;4.82;;;2.13;;
78787;SDS011;68131;52.508;5.502;2023-07-28T08:30:40;3.33;;;2.40;;
78787;SDS011;68131;52.508;5.502;2023-07-28T08:33:12;4.22;;;2.40;;
78787;SDS011;68131;52.508;5.502;2023-07-28T08:35:44;3.97;;;2.15;;
78787;SDS011;68131;52.508;5.502;2023-07-28T08:38:13;4.93;;;3.38;;
78787;SDS011;68131;52.508;5.502;2023-07-28T08:40:43;2.92;;;1.92;;
78787;SDS011;68131;52.508;5.502;2023-07-28T08:43:15;4.28;;;2.28;;
78787;SDS011;68131;52.508;5.502;2023-07-28T08:45:44;4.05;;;2.13;;
78787;SDS011;68131;52.508;5.502;2023-07-28T08:48:14;4.03;;;2.45;;
78787;SDS011;68131;52.508;5.502;2023-07-28T08:50:45;5.03;;;2.58;;
78787;SDS011;68131;52.508;5.502;2023-07-28T08:53:18;3.95;;;2.15;;
78787;SDS011;68131;52.508;5.502;2023-07-28T08:55:47;4.85;;;2.25;;
78787;SDS011;68131;52.508;5.502;2023-07-28T08:58:17;4.28;;;2.33;;
78787;SDS011;68131;52.508;5.502;2023-07-28T09:00:48;4.47;;;2.20;;
78787;SDS011;68131;52.508;5.502;2023-07-28T09:03:18;3.35;;;2.35;;
78787;SDS011;68131;52.508;5.502;2023-07-28T09:05:51;2.83;;;2.25;;
78787;SDS011;68131;52.508;5.502;2023-07-28T09:08:20;6.25;;;2.53;;
78787;SDS011;68131;52.508;5.502;2023-07-28T09:10:49;2.55;;;2.30;;
78787;SDS011;68131;52.508;5.502;2023-07-28T09:13:20;3.22;;;2.20;;
78787;SDS011;68131;52.508;5.502;2023-07-28T09:15:49;6.38;;;2.67;;
78787;SDS011;68131;52.508;5.502;2023-07-28T09:18:19;3.75;;;2.15;;
78787;SDS011;68131;52.508;5.502;2023-07-28T09:20:51;3.15;;;2.10;;
78787;SDS011;68131;52.508;5.502;2023-07-28T09:23:27;6.35;;;2.85;;
78787;SDS011;68131;52.508;5.502;2023-07-28T09:26:00;4.15;;;1.98;;
78787;SDS011;68131;52.508;5.502;2023-07-28T09:28:40;4.57;;;2.08;;
78787;SDS011;68131;52.508;5.502;2023-07-28T09:31:09;3.38;;;1.73;;
78787;SDS011;68131;52.508;5.502;2023-07-28T09:33:39;2.75;;;1.73;;
78787;SDS011;68131;52.508;5.502;2023-07-28T09:36:15;3.28;;;2.10;;
78787;SDS011;68131;52.508;5.502;2023-07-28T09:38:48;7.22;;;2.13;;
78787;SDS011;68131;52.508;5.502;2023-07-28T09:41:18;4.05;;;2.53;;
78787;SDS011;68131;52.508;5.502;2023-07-28T09:43:49;5.57;;;2.95;;
78787;SDS011;68131;52.508;5.502;2023-07-28T09:46:19;2.72;;;1.52;;
78787;SDS011;68131;52.508;5.502;2023-07-28T09:48:52;2.78;;;1.98;;
78787;SDS011;68131;52.508;5.502;2023-07-28T09:51:29;4.07;;;2.00;;
78787;SDS011;68131;52.508;5.502;2023-07-28T09:54:02;2.67;;;1.38;;
78787;SDS011;68131;52.508;5.502;2023-07-28T09:56:33;3.33;;;1.80;;
78787;SDS011;68131;52.508;5.502;2023-07-28T09:59:05;5.05;;;2.17;;
78787;SDS011;68131;52.508;5.502;2023-07-28T10:01:39;3.38;;;1.67;;
78787;SDS011;68131;52.508;5.502;2023-07-28T10:04:09;3.22;;;1.65;;
78787;SDS011;68131;52.508;5.502;2023-07-28T10:06:40;3.45;;;1.83;;
78787;SDS011;68131;52.508;5.502;2023-07-28T10:09:10;3.25;;;1.23;;
78787;SDS011;68131;52.508;5.502;2023-07-28T10:11:42;3.67;;;1.45;;
78787;SDS011;68131;52.508;5.502;2023-07-28T10:14:12;3.83;;;1.77;;
78787;SDS011;68131;52.508;5.502;2023-07-28T10:16:56;1.45;;;1.35;;
78787;SDS011;68131;52.508;5.502;2023-07-28T10:19:27;3.45;;;1.40;;
78787;SDS011;68131;52.508;5.502;2023-07-28T10:22:06;2.83;;;1.77;;
78787;SDS011;68131;52.508;5.502;2023-07-28T10:27:30;2.25;;;1.48;;
78787;SDS011;68131;52.508;5.502;2023-07-28T10:30:03;3.75;;;1.90;;
78787;SDS011;68131;52.508;5.502;2023-07-28T10:32:39;3.33;;;1.30;;
78787;SDS011;68131;52.508;5.502;2023-07-28T10:35:10;5.45;;;1.52;;
78787;SDS011;68131;52.508;5.502;2023-07-28T10:37:54;3.13;;;1.50;;
78787;SDS011;68131;52.508;5.502;2023-07-28T10:42:59;2.78;;;1.67;;
78787;SDS011;68131;52.508;5.502;2023-07-28T10:45:31;3.70;;;1.75;;
78787;SDS011;68131;52.508;5.502;2023-07-28T10:48:00;3.45;;;1.75;;
78787;SDS011;68131;52.508;5.502;2023-07-28T10:50:30;1.60;;;1.30;;
78787;SDS011;68131;52.508;5.502;2023-07-28T10:53:08;2.58;;;1.17;;
78787;SDS011;68131;52.508;5.502;2023-07-28T10:55:39;3.90;;;1.80;;
78787;SDS011;68131;52.508;5.502;2023-07-28T10:58:08;1.95;;;1.13;;
78787;SDS011;68131;52.508;5.502;2023-07-28T11:00:38;2.55;;;1.75;;
78787;SDS011;68131;52.508;5.502;2023-07-28T11:03:11;2.65;;;1.73;;
78787;SDS011;68131;52.508;5.502;2023-07-28T11:05:41;3.10;;;1.30;;
78787;SDS011;68131;52.508;5.502;2023-07-28T11:08:13;3.00;;;1.55;;
78787;SDS011;68131;52.508;5.502;2023-07-28T11:10:43;2.72;;;1.60;;
78787;SDS011;68131;52.508;5.502;2023-07-28T11:13:12;3.58;;;2.10;;
78787;SDS011;68131;52.508;5.502;2023-07-28T11:15:42;2.75;;;1.65;;
78787;SDS011;68131;52.508;5.502;2023-07-28T11:18:14;3.60;;;1.80;;
78787;SDS011;68131;52.508;5.502;2023-07-28T11:20:44;2.28;;;1.63;;
78787;SDS011;68131;52.508;5.502;2023-07-28T11:23:17;4.30;;;1.70;;
78787;SDS011;68131;52.508;5.502;2023-07-28T11:25:46;2.72;;;1.55;;
78787;SDS011;68131;52.508;5.502;2023-07-28T11:28:16;5.18;;;1.98;;
78787;SDS011;68131;52.508;5.502;2023-07-28T11:30:47;3.35;;;1.73;;
78787;SDS011;68131;52.508;5.502;2023-07-28T11:33:16;3.25;;;1.52;;
78787;SDS011;68131;52.508;5.502;2023-07-28T11:35:49;2.47;;;1.58;;
78787;SDS011;68131;52.508;5.502;2023-07-28T11:38:22;6.07;;;2.17;;
78787;SDS011;68131;52.508;5.502;2023-07-28T11:40:58;4.70;;;1.77;;
78787;SDS011;68131;52.508;5.502;2023-07-28T11:43:27;3.15;;;1.90;;
78787;SDS011;68131;52.508;5.502;2023-07-28T11:45:57;3.00;;;1.60;;
78787;SDS011;68131;52.508;5.502;2023-07-28T11:48:29;2.65;;;1.77;;
78787;SDS011;68131;52.508;5.502;2023-07-28T11:50:59;2.45;;;2.00;;
78787;SDS011;68131;52.508;5.502;2023-07-28T11:53:34;3.17;;;1.33;;
78787;SDS011;68131;52.508;5.502;2023-07-28T11:56:06;4.65;;;1.90;;
78787;SDS011;68131;52.508;5.502;2023-07-28T11:58:36;3.35;;;1.80;;
78787;SDS011;68131;52.508;5.502;2023-07-28T12:01:07;2.53;;;2.15;;
78787;SDS011;68131;52.508;5.502;2023-07-28T12:03:40;3.72;;;1.58;;
78787;SDS011;68131;52.508;5.502;2023-07-28T12:06:12;2.35;;;1.70;;
78787;SDS011;68131;52.508;5.502;2023-07-28T12:08:46;2.28;;;1.60;;
78787;SDS011;68131;52.508;5.502;2023-07-28T12:11:15;2.13;;;1.92;;
78787;SDS011;68131;52.508;5.502;2023-07-28T12:13:48;3.47;;;2.10;;
78787;SDS011;68131;52.508;5.502;2023-07-28T12:16:37;2.03;;;1.60;;
78787;SDS011;68131;52.508;5.502;2023-07-28T12:19:07;2.22;;;1.48;;
78787;SDS011;68131;52.508;5.502;2023-07-28T12:21:37;2.65;;;1.80;;
78787;SDS011;68131;52.508;5.502;2023-07-28T12:24:12;1.80;;;1.48;;
78787;SDS011;68131;52.508;5.502;2023-07-28T12:26:41;2.08;;;1.60;;
78787;SDS011;68131;52.508;5.502;2023-07-28T12:29:13;4.20;;;1.70;;
78787;SDS011;68131;52.508;5.502;2023-07-28T12:31:45;4.43;;;1.50;;
78787;SDS011;68131;52.508;5.502;2023-07-28T12:34:15;2.67;;;1.67;;
78787;SDS011;68131;52.508;5.502;2023-07-28T12:36:46;3.05;;;1.65;;
78787;SDS011;68131;52.508;5.502;2023-07-28T12:39:19;2.70;;;1.73;;
78787;SDS011;68131;52.508;5.502;2023-07-28T12:41:49;2.40;;;1.73;;
78787;SDS011;68131;52.508;5.502;2023-07-28T12:44:19;7.32;;;1.70;;
78787;SDS011;68131;52.508;5.502;2023-07-28T12:46:48;2.40;;;1.42;;
78787;SDS011;68131;52.508;5.502;2023-07-28T12:49:17;2.30;;;1.70;;
78787;SDS011;68131;52.508;5.502;2023-07-28T12:51:49;1.80;;;1.25;;
78787;SDS011;68131;52.508;5.502;2023-07-28T12:54:21;3.97;;;2.05;;
78787;SDS011;68131;52.508;5.502;2023-07-28T12:56:50;3.33;;;1.77;;
78787;SDS011;68131;52.508;5.502;2023-07-28T12:59:20;4.95;;;2.03;;
78787;SDS011;68131;52.508;5.502;2023-07-28T13:01:49;1.77;;;1.33;;
78787;SDS011;68131;52.508;5.502;2023-07-28T13:04:22;3.47;;;1.80;;
78787;SDS011;68131;52.508;5.502;2023-07-28T13:06:51;1.73;;;1.25;;
78787;SDS011;68131;52.508;5.502;2023-07-28T13:09:23;2.78;;;1.75;;
78787;SDS011;68131;52.508;5.502;2023-07-28T13:11:52;2.15;;;1.42;;
78787;SDS011;68131;52.508;5.502;2023-07-28T13:14:21;2.80;;;1.95;;
78787;SDS011;68131;52.508;5.502;2023-07-28T13:16:51;1.92;;;1.40;;
78787;SDS011;68131;52.508;5.502;2023-07-28T13:19:20;2.10;;;1.55;;
78787;SDS011;68131;52.508;5.502;2023-07-28T13:21:52;3.15;;;1.65;;
78787;SDS011;68131;52.508;5.502;2023-07-28T13:24:24;3.17;;;1.55;;
78787;SDS011;68131;52.508;5.502;2023-07-28T13:26:53;1.88;;;1.48;;
78787;SDS011;68131;52.508;5.502;2023-07-28T13:29:22;1.80;;;1.35;;
78787;SDS011;68131;52.508;5.502;2023-07-28T13:31:56;3.38;;;1.45;;
78787;SDS011;68131;52.508;5.502;2023-07-28T13:34:27;1.70;;;0.95;;
78787;SDS011;68131;52.508;5.502;2023-07-28T13:36:56;3.22;;;1.52;;
78787;SDS011;68131;52.508;5.502;2023-07-28T13:39:28;2.72;;;1.55;;
78787;SDS011;68131;52.508;5.502;2023-07-28T13:41:57;3.60;;;1.27;;
78787;SDS011;68131;52.508;5.502;2023-07-28T13:44:26;1.60;;;1.35;;
78787;SDS011;68131;52.508;5.502;2023-07-28T13:46:56;4.57;;;1.80;;
78787;SDS011;68131;52.508;5.502;2023-07-28T13:49:25;2.58;;;1.50;;
78787;SDS011;68131;52.508;5.502;2023-07-28T13:51:54;2.33;;;1.45;;
78787;SDS011;68131;52.508;5.502;2023-07-28T13:54:23;3.28;;;1.50;;
78787;SDS011;68131;52.508;5.502;2023-07-28T13:56:57;1.67;;;1.25;;
78787;SDS011;68131;52.508;5.502;2023-07-28T13:59:26;4.30;;;1.52;;
78787;SDS011;68131;52.508;5.502;2023-07-28T14:01:55;3.88;;;1.23;;
78787;SDS011;68131;52.508;5.502;2023-07-28T14:04:24;1.58;;;1.20;;
78787;SDS011;68131;52.508;5.502;2023-07-28T14:06:54;3.00;;;1.30;;
78787;SDS011;68131;52.508;5.502;2023-07-28T14:09:24;1.60;;;1.35;;
78787;SDS011;68131;52.508;5.502;2023-07-28T14:11:53;2.38;;;1.60;;
78787;SDS011;68131;52.508;5.502;2023-07-28T14:14:25;2.08;;;1.25;;
78787;SDS011;68131;52.508;5.502;2023-07-28T14:16:54;2.50;;;1.55;;
78787;SDS011;68131;52.508;5.502;2023-07-28T14:19:27;2.53;;;1.42;;
78787;SDS011;68131;52.508;5.502;2023-07-28T14:21:57;1.92;;;1.40;;
78787;SDS011;68131;52.508;5.502;2023-07-28T14:24:26;2.38;;;1.60;;
78787;SDS011;68131;52.508;5.502;2023-07-28T14:26:56;2.58;;;1.20;;
78787;SDS011;68131;52.508;5.502;2023-07-28T14:29:27;4.38;;;1.55;;
78787;SDS011;68131;52.508;5.502;2023-07-28T14:31:59;2.45;;;1.30;;
78787;SDS011;68131;52.508;5.502;2023-07-28T14:34:28;2.58;;;1.35;;
78787;SDS011;68131;52.508;5.502;2023-07-28T14:37:00;2.10;;;1.90;;
78787;SDS011;68131;52.508;5.502;2023-07-28T14:39:33;1.67;;;1.30;;
78787;SDS011;68131;52.508;5.502;2023-07-28T14:42:02;2.10;;;1.30;;
78787;SDS011;68131;52.508;5.502;2023-07-28T14:44:38;1.60;;;1.20;;
78787;SDS011;68131;52.508;5.502;2023-07-28T14:47:07;2.20;;;1.50;;
78787;SDS011;68131;52.508;5.502;2023-07-28T14:49:36;3.42;;;1.52;;
78787;SDS011;68131;52.508;5.502;2023-07-28T14:52:06;3.38;;;0.98;;
78787;SDS011;68131;52.508;5.502;2023-07-28T14:54:36;2.78;;;1.27;;
78787;SDS011;68131;52.508;5.502;2023-07-28T14:57:05;2.30;;;1.60;;
78787;SDS011;68131;52.508;5.502;2023-07-28T14:59:45;4.10;;;1.50;;
78787;SDS011;68131;52.508;5.502;2023-07-28T15:02:14;2.63;;;0.95;;
78787;SDS011;68131;52.508;5.502;2023-07-28T15:04:43;2.95;;;1.40;;
78787;SDS011;68131;52.508;5.502;2023-07-28T15:09:48;2.47;;;1.17;;
78787;SDS011;68131;52.508;5.502;2023-07-28T15:12:18;1.77;;;1.38;;
78787;SDS011;68131;52.508;5.502;2023-07-28T15:14:51;1.70;;;1.08;;
78787;SDS011;68131;52.508;5.502;2023-07-28T15:17:20;2.58;;;1.80;;
78787;SDS011;68131;52.508;5.502;2023-07-28T15:19:49;2.03;;;1.30;;
78787;SDS011;68131;52.508;5.502;2023-07-28T15:22:18;1.95;;;1.30;;
78787;SDS011;68131;52.508;5.502;2023-07-28T15:24:47;1.95;;;1.30;;
78787;SDS011;68131;52.508;5.502;2023-07-28T15:27:17;2.38;;;1.42;;